Terminal Aerodrome Forecast
Issued by NWS Bismarck, ND

Home | Current Version | Previous Version | Graphics & Text | Print | Product List | Glossary On
Versions: 1 2 3 4 5 6 7 8 9 10 11 12 13 14 15 16 17 18 19 20 21 22 23 24 25 26 27 28 29 30
000
FTUS43 KBIS 280900 AAA
TAFBIS
TAF AMD
KBIS 280933Z 2810/2906 13008KT 3SM BR OVC002
     FM281400 14007KT P6SM SCT011
     FM281700 17013KT P6SM SCT190
     FM281900 18019G28KT P6SM SCT240=

USA.gov is the U.S. government's official web portal to all federal, state and local government web resources and services.